sensor_id;sensor_type;location;lat;lon;timestamp;P1;durP1;ratioP1;P2;durP2;ratioP2
77788;SDS011;66980;44.384;0.512;2023-01-16T11:02:49;22.97;;;11.47;;
77788;SDS011;66980;44.384;0.512;2023-01-16T11:05:22;25.52;;;13.07;;
77788;SDS011;66980;44.384;0.512;2023-01-16T11:07:54;23.58;;;12.00;;
77788;SDS011;66980;44.384;0.512;2023-01-16T11:10:38;22.67;;;11.23;;
77788;SDS011;66980;44.384;0.512;2023-01-16T11:13:27;27.63;;;13.23;;
77788;SDS011;66980;44.384;0.512;2023-01-16T11:16:55;24.35;;;11.32;;
77788;SDS011;66980;44.384;0.512;2023-01-16T11:20:35;18.95;;;10.52;;
77788;SDS011;66980;44.384;0.512;2023-01-16T11:23:18;18.55;;;10.23;;
77788;SDS011;66980;44.384;0.512;2023-01-16T11:26:46;18.08;;;9.57;;
77788;SDS011;66980;44.384;0.512;2023-01-16T11:30:07;19.48;;;9.25;;
77788;SDS011;66980;44.384;0.512;2023-01-16T11:32:42;21.65;;;9.35;;
77788;SDS011;66980;44.384;0.512;2023-01-16T11:35:13;23.52;;;9.75;;
77788;SDS011;66980;44.384;0.512;2023-01-16T11:37:44;27.48;;;10.05;;
77788;SDS011;66980;44.384;0.512;2023-01-16T11:40:23;22.75;;;9.60;;
77788;SDS011;66980;44.384;0.512;2023-01-16T11:42:54;37.40;;;13.40;;
77788;SDS011;66980;44.384;0.512;2023-01-16T11:45:45;59.50;;;21.85;;
77788;SDS011;66980;44.384;0.512;2023-01-16T11:48:33;33.10;;;14.32;;
77788;SDS011;66980;44.384;0.512;2023-01-16T11:51:02;37.95;;;16.35;;
77788;SDS011;66980;44.384;0.512;2023-01-16T11:53:32;36.20;;;13.77;;
77788;SDS011;66980;44.384;0.512;2023-01-16T12:01:44;25.98;;;10.27;;
77788;SDS011;66980;44.384;0.512;2023-01-16T12:04:33;25.33;;;10.20;;
77788;SDS011;66980;44.384;0.512;2023-01-16T12:12:26;21.27;;;9.02;;
77788;SDS011;66980;44.384;0.512;2023-01-16T12:18:12;26.80;;;9.65;;
77788;SDS011;66980;44.384;0.512;2023-01-16T12:21:49;19.75;;;8.23;;
77788;SDS011;66980;44.384;0.512;2023-01-16T12:24:31;23.27;;;8.35;;
77788;SDS011;66980;44.384;0.512;2023-01-16T12:27:34;17.98;;;7.00;;
77788;SDS011;66980;44.384;0.512;2023-01-16T12:32:59;13.93;;;7.30;;
77788;SDS011;66980;44.384;0.512;2023-01-16T12:41:53;18.77;;;7.07;;
77788;SDS011;66980;44.384;0.512;2023-01-16T12:44:48;15.40;;;7.20;;
77788;SDS011;66980;44.384;0.512;2023-01-16T12:50:07;18.50;;;6.82;;
77788;SDS011;66980;44.384;0.512;2023-01-16T12:53:43;22.30;;;7.47;;
77788;SDS011;66980;44.384;0.512;2023-01-16T12:58:47;17.83;;;5.82;;
77788;SDS011;66980;44.384;0.512;2023-01-16T13:01:18;20.40;;;7.13;;
77788;SDS011;66980;44.384;0.512;2023-01-16T13:03:51;18.55;;;6.38;;
77788;SDS011;66980;44.384;0.512;2023-01-16T13:06:24;18.45;;;6.00;;
77788;SDS011;66980;44.384;0.512;2023-01-16T13:09:00;12.77;;;6.22;;
77788;SDS011;66980;44.384;0.512;2023-01-16T13:11:36;18.42;;;7.00;;
77788;SDS011;66980;44.384;0.512;2023-01-16T13:14:34;19.73;;;6.75;;
77788;SDS011;66980;44.384;0.512;2023-01-16T13:19:39;15.65;;;5.65;;
77788;SDS011;66980;44.384;0.512;2023-01-16T13:22:19;15.00;;;5.78;;
77788;SDS011;66980;44.384;0.512;2023-01-16T13:27:41;12.82;;;5.13;;
77788;SDS011;66980;44.384;0.512;2023-01-16T13:30:13;13.23;;;5.47;;
77788;SDS011;66980;44.384;0.512;2023-01-16T13:32:43;9.55;;;4.78;;
77788;SDS011;66980;44.384;0.512;2023-01-16T13:35:23;14.73;;;4.82;;
77788;SDS011;66980;44.384;0.512;2023-01-16T13:43:56;12.30;;;4.80;;
77788;SDS011;66980;44.384;0.512;2023-01-16T13:46:45;13.18;;;5.63;;
77788;SDS011;66980;44.384;0.512;2023-01-16T13:49:19;23.83;;;9.52;;
77788;SDS011;66980;44.384;0.512;2023-01-16T13:51:48;17.05;;;5.97;;
77788;SDS011;66980;44.384;0.512;2023-01-16T13:54:24;17.27;;;9.57;;
77788;SDS011;66980;44.384;0.512;2023-01-16T13:57:03;16.23;;;8.57;;
77788;SDS011;66980;44.384;0.512;2023-01-16T13:59:57;16.17;;;8.15;;
77788;SDS011;66980;44.384;0.512;2023-01-16T14:07:49;20.58;;;8.88;;
77788;SDS011;66980;44.384;0.512;2023-01-16T14:10:40;15.30;;;9.00;;
77788;SDS011;66980;44.384;0.512;2023-01-16T14:15:57;15.25;;;8.95;;
77788;SDS011;66980;44.384;0.512;2023-01-16T14:21:23;16.75;;;8.07;;
77788;SDS011;66980;44.384;0.512;2023-01-16T14:23:57;12.95;;;7.68;;
77788;SDS011;66980;44.384;0.512;2023-01-16T14:31:56;11.93;;;7.03;;
77788;SDS011;66980;44.384;0.512;2023-01-16T14:35:10;12.20;;;7.57;;
77788;SDS011;66980;44.384;0.512;2023-01-16T14:39:59;10.32;;;6.82;;
77788;SDS011;66980;44.384;0.512;2023-01-16T14:53:53;7.70;;;6.07;;
77788;SDS011;66980;44.384;0.512;2023-01-16T14:56:44;8.48;;;5.93;;
77788;SDS011;66980;44.384;0.512;2023-01-16T14:59:16;10.10;;;6.32;;
77788;SDS011;66980;44.384;0.512;2023-01-16T15:01:47;10.05;;;6.20;;
77788;SDS011;66980;44.384;0.512;2023-01-16T15:07:44;11.68;;;5.82;;
77788;SDS011;66980;44.384;0.512;2023-01-16T15:10:17;8.15;;;5.10;;
77788;SDS011;66980;44.384;0.512;2023-01-16T15:12:46;6.38;;;5.30;;
77788;SDS011;66980;44.384;0.512;2023-01-16T15:15:23;8.60;;;5.15;;
77788;SDS011;66980;44.384;0.512;2023-01-16T15:17:53;7.35;;;5.07;;
77788;SDS011;66980;44.384;0.512;2023-01-16T15:20:41;8.02;;;4.35;;
77788;SDS011;66980;44.384;0.512;2023-01-16T15:23:30;9.63;;;5.22;;
77788;SDS011;66980;44.384;0.512;2023-01-16T15:31:10;6.70;;;4.90;;
77788;SDS011;66980;44.384;0.512;2023-01-16T15:36:36;7.32;;;3.80;;
77788;SDS011;66980;44.384;0.512;2023-01-16T15:42:00;7.65;;;3.92;;
77788;SDS011;66980;44.384;0.512;2023-01-16T15:44:48;6.65;;;4.07;;
77788;SDS011;66980;44.384;0.512;2023-01-16T15:47:38;10.70;;;3.80;;
77788;SDS011;66980;44.384;0.512;2023-01-16T15:52:54;9.88;;;3.65;;
77788;SDS011;66980;44.384;0.512;2023-01-16T15:55:24;6.85;;;3.83;;
77788;SDS011;66980;44.384;0.512;2023-01-16T15:57:53;20.25;;;4.47;;
77788;SDS011;66980;44.384;0.512;2023-01-16T16:00:22;11.77;;;3.63;;
77788;SDS011;66980;44.384;0.512;2023-01-16T16:02:49;12.35;;;3.58;;
77788;SDS011;66980;44.384;0.512;2023-01-16T16:05:14;14.77;;;3.78;;
77788;SDS011;66980;44.384;0.512;2023-01-16T16:07:46;11.68;;;3.80;;
77788;SDS011;66980;44.384;0.512;2023-01-16T16:10:12;11.50;;;3.75;;
77788;SDS011;66980;44.384;0.512;2023-01-16T16:13:03;13.20;;;3.33;;
77788;SDS011;66980;44.384;0.512;2023-01-16T16:15:30;12.73;;;3.53;;
77788;SDS011;66980;44.384;0.512;2023-01-16T16:18:15;12.60;;;3.45;;
77788;SDS011;66980;44.384;0.512;2023-01-16T16:20:46;8.38;;;3.17;;
77788;SDS011;66980;44.384;0.512;2023-01-16T16:23:24;7.63;;;3.10;;
77788;SDS011;66980;44.384;0.512;2023-01-16T16:25:57;7.47;;;2.85;;
77788;SDS011;66980;44.384;0.512;2023-01-16T16:36:34;8.55;;;2.58;;
77788;SDS011;66980;44.384;0.512;2023-01-16T16:39:04;12.35;;;3.17;;
77788;SDS011;66980;44.384;0.512;2023-01-16T16:41:52;10.55;;;3.25;;
77788;SDS011;66980;44.384;0.512;2023-01-16T16:44:38;11.88;;;3.10;;
77788;SDS011;66980;44.384;0.512;2023-01-16T16:50:28;10.35;;;3.50;;
77788;SDS011;66980;44.384;0.512;2023-01-16T16:53:11;12.48;;;3.40;;
77788;SDS011;66980;44.384;0.512;2023-01-16T16:55:40;7.20;;;2.85;;
77788;SDS011;66980;44.384;0.512;2023-01-16T16:58:13;23.20;;;13.00;;
77788;SDS011;66980;44.384;0.512;2023-01-16T17:00:42;17.58;;;7.72;;
77788;SDS011;66980;44.384;0.512;2023-01-16T17:03:12;18.55;;;12.93;;
77788;SDS011;66980;44.384;0.512;2023-01-16T17:05:43;27.30;;;16.02;;
77788;SDS011;66980;44.384;0.512;2023-01-16T17:08:17;25.23;;;16.85;;
77788;SDS011;66980;44.384;0.512;2023-01-16T17:10:45;25.73;;;15.93;;
77788;SDS011;66980;44.384;0.512;2023-01-16T17:13:14;27.52;;;17.50;;
77788;SDS011;66980;44.384;0.512;2023-01-16T17:15:41;26.75;;;15.93;;
77788;SDS011;66980;44.384;0.512;2023-01-16T17:18:11;21.67;;;15.05;;
77788;SDS011;66980;44.384;0.512;2023-01-16T17:20:38;27.67;;;14.70;;
77788;SDS011;66980;44.384;0.512;2023-01-16T17:23:08;19.42;;;14.15;;
77788;SDS011;66980;44.384;0.512;2023-01-16T17:25:36;22.00;;;13.48;;
77788;SDS011;66980;44.384;0.512;2023-01-16T17:28:02;20.13;;;12.07;;
77788;SDS011;66980;44.384;0.512;2023-01-16T17:30:28;19.08;;;11.60;;
77788;SDS011;66980;44.384;0.512;2023-01-16T17:33:05;20.98;;;11.48;;
77788;SDS011;66980;44.384;0.512;2023-01-16T17:35:39;18.08;;;11.75;;
77788;SDS011;66980;44.384;0.512;2023-01-16T17:38:14;13.60;;;11.32;;
77788;SDS011;66980;44.384;0.512;2023-01-16T17:40:45;16.92;;;10.30;;
77788;SDS011;66980;44.384;0.512;2023-01-16T17:43:14;23.63;;;13.55;;
77788;SDS011;66980;44.384;0.512;2023-01-16T17:46:22;29.00;;;11.65;;
77788;SDS011;66980;44.384;0.512;2023-01-16T17:48:49;24.63;;;14.77;;
77788;SDS011;66980;44.384;0.512;2023-01-16T17:51:16;35.78;;;16.73;;
77788;SDS011;66980;44.384;0.512;2023-01-16T17:53:49;44.05;;;18.17;;
77788;SDS011;66980;44.384;0.512;2023-01-16T17:56:15;42.10;;;20.20;;
77788;SDS011;66980;44.384;0.512;2023-01-16T17:58:44;41.30;;;18.17;;
77788;SDS011;66980;44.384;0.512;2023-01-16T18:01:14;31.30;;;17.00;;
77788;SDS011;66980;44.384;0.512;2023-01-16T18:03:42;32.88;;;16.73;;
77788;SDS011;66980;44.384;0.512;2023-01-16T18:06:21;37.50;;;16.77;;
77788;SDS011;66980;44.384;0.512;2023-01-16T18:08:48;37.10;;;15.65;;
77788;SDS011;66980;44.384;0.512;2023-01-16T18:11:15;32.50;;;14.52;;
77788;SDS011;66980;44.384;0.512;2023-01-16T18:14:00;35.10;;;13.80;;
77788;SDS011;66980;44.384;0.512;2023-01-16T18:16:44;33.22;;;13.80;;
77788;SDS011;66980;44.384;0.512;2023-01-16T18:19:29;33.63;;;12.98;;
77788;SDS011;66980;44.384;0.512;2023-01-16T18:21:55;33.58;;;12.27;;
77788;SDS011;66980;44.384;0.512;2023-01-16T18:24:27;36.47;;;13.45;;
77788;SDS011;66980;44.384;0.512;2023-01-16T18:26:58;35.40;;;12.65;;
77788;SDS011;66980;44.384;0.512;2023-01-16T18:29:25;33.92;;;11.75;;
77788;SDS011;66980;44.384;0.512;2023-01-16T18:31:51;22.92;;;11.80;;
77788;SDS011;66980;44.384;0.512;2023-01-16T18:34:35;32.25;;;12.43;;
77788;SDS011;66980;44.384;0.512;2023-01-16T18:37:02;27.42;;;10.98;;
77788;SDS011;66980;44.384;0.512;2023-01-16T18:39:28;25.08;;;10.52;;
77788;SDS011;66980;44.384;0.512;2023-01-16T18:42:12;18.60;;;10.07;;
77788;SDS011;66980;44.384;0.512;2023-01-16T18:44:56;27.75;;;10.75;;
77788;SDS011;66980;44.384;0.512;2023-01-16T18:47:40;26.00;;;10.68;;
77788;SDS011;66980;44.384;0.512;2023-01-16T18:50:25;20.27;;;10.55;;
77788;SDS011;66980;44.384;0.512;2023-01-16T18:53:52;22.73;;;10.07;;
77788;SDS011;66980;44.384;0.512;2023-01-16T18:56:22;17.58;;;9.15;;
77788;SDS011;66980;44.384;0.512;2023-01-16T18:59:17;20.05;;;9.65;;
77788;SDS011;66980;44.384;0.512;2023-01-16T19:04:36;18.45;;;8.77;;
77788;SDS011;66980;44.384;0.512;2023-01-16T19:07:03;18.90;;;8.40;;
77788;SDS011;66980;44.384;0.512;2023-01-16T19:09:42;22.45;;;9.45;;
